sensor_id;sensor_type;location;lat;lon;timestamp;pressure;altitude;pressure_sealevel;temperature;humidity
8941;BME280;4505;43.406;23.226;2023-11-22T00:01:16;99312.78;;;9.22;100.00
8941;BME280;4505;43.406;23.226;2023-11-22T00:03:45;99310.69;;;9.24;100.00
8941;BME280;4505;43.406;23.226;2023-11-22T00:06:11;99316.94;;;9.18;100.00
8941;BME280;4505;43.406;23.226;2023-11-22T00:08:38;99309.94;;;9.01;100.00
8941;BME280;4505;43.406;23.226;2023-11-22T00:11:05;99309.03;;;8.95;100.00
8941;BME280;4505;43.406;23.226;2023-11-22T00:13:31;99298.06;;;8.92;100.00
8941;BME280;4505;43.406;23.226;2023-11-22T00:15:58;99299.47;;;8.94;100.00
8941;BME280;4505;43.406;23.226;2023-11-22T00:18:27;99307.72;;;8.98;100.00
8941;BME280;4505;43.406;23.226;2023-11-22T00:20:56;99308.09;;;8.90;100.00
8941;BME280;4505;43.406;23.226;2023-11-22T00:23:24;99310.97;;;8.88;100.00
8941;BME280;4505;43.406;23.226;2023-11-22T00:25:59;99312.25;;;8.86;100.00
8941;BME280;4505;43.406;23.226;2023-11-22T00:28:26;99305.25;;;8.91;100.00
8941;BME280;4505;43.406;23.226;2023-11-22T00:30:52;99315.75;;;9.37;100.00
8941;BME280;4505;43.406;23.226;2023-11-22T00:33:20;99303.28;;;9.77;100.00
8941;BME280;4505;43.406;23.226;2023-11-22T00:35:46;99308.88;;;9.53;100.00
8941;BME280;4505;43.406;23.226;2023-11-22T00:38:14;99299.19;;;9.86;100.00
8941;BME280;4505;43.406;23.226;2023-11-22T00:40:41;99293.97;;;9.35;100.00
8941;BME280;4505;43.406;23.226;2023-11-22T00:43:08;99298.41;;;9.07;100.00
8941;BME280;4505;43.406;23.226;2023-11-22T00:45:35;99300.72;;;9.03;100.00
8941;BME280;4505;43.406;23.226;2023-11-22T00:48:01;99307.06;;;9.02;100.00
8941;BME280;4505;43.406;23.226;2023-11-22T00:50:28;99305.53;;;9.06;100.00
8941;BME280;4505;43.406;23.226;2023-11-22T00:52:54;99312.38;;;9.02;100.00
8941;BME280;4505;43.406;23.226;2023-11-22T00:55:22;99314.44;;;9.00;100.00
8941;BME280;4505;43.406;23.226;2023-11-22T00:57:49;99320.53;;;9.01;100.00
8941;BME280;4505;43.406;23.226;2023-11-22T01:00:16;99314.53;;;8.94;100.00
8941;BME280;4505;43.406;23.226;2023-11-22T01:02:43;99312.94;;;8.93;100.00
8941;BME280;4505;43.406;23.226;2023-11-22T01:05:09;99313.25;;;8.96;100.00
8941;BME280;4505;43.406;23.226;2023-11-22T01:07:37;99302.78;;;9.01;100.00
8941;BME280;4505;43.406;23.226;2023-11-22T01:10:05;99299.69;;;9.55;100.00
8941;BME280;4505;43.406;23.226;2023-11-22T01:12:33;99278.44;;;10.28;100.00
8941;BME280;4505;43.406;23.226;2023-11-22T01:14:59;99272.50;;;10.21;100.00
8941;BME280;4505;43.406;23.226;2023-11-22T01:17:26;99306.13;;;9.48;100.00
8941;BME280;4505;43.406;23.226;2023-11-22T01:19:53;99311.38;;;9.31;100.00
8941;BME280;4505;43.406;23.226;2023-11-22T01:22:19;99305.16;;;9.26;100.00
8941;BME280;4505;43.406;23.226;2023-11-22T01:24:46;99299.19;;;9.19;100.00
8941;BME280;4505;43.406;23.226;2023-11-22T01:27:12;99312.19;;;9.20;100.00
8941;BME280;4505;43.406;23.226;2023-11-22T01:29:40;99302.22;;;8.99;100.00
8941;BME280;4505;43.406;23.226;2023-11-22T01:32:07;99307.38;;;9.06;100.00
8941;BME280;4505;43.406;23.226;2023-11-22T01:34:34;99302.44;;;9.09;100.00
8941;BME280;4505;43.406;23.226;2023-11-22T01:37:00;99295.19;;;9.05;100.00
8941;BME280;4505;43.406;23.226;2023-11-22T01:39:27;99291.06;;;8.97;100.00
8941;BME280;4505;43.406;23.226;2023-11-22T01:41:53;99291.41;;;9.01;100.00
8941;BME280;4505;43.406;23.226;2023-11-22T01:44:21;99286.66;;;9.03;100.00
8941;BME280;4505;43.406;23.226;2023-11-22T01:46:50;99285.44;;;9.33;100.00
8941;BME280;4505;43.406;23.226;2023-11-22T01:49:17;99286.13;;;9.68;100.00
8941;BME280;4505;43.406;23.226;2023-11-22T01:51:43;99279.06;;;9.74;100.00
8941;BME280;4505;43.406;23.226;2023-11-22T01:54:10;99275.69;;;9.78;100.00
8941;BME280;4505;43.406;23.226;2023-11-22T01:56:37;99280.88;;;9.57;100.00
8941;BME280;4505;43.406;23.226;2023-11-22T01:59:04;99269.38;;;9.23;100.00
8941;BME280;4505;43.406;23.226;2023-11-22T02:01:31;99281.09;;;9.27;100.00
8941;BME280;4505;43.406;23.226;2023-11-22T02:03:59;99276.84;;;9.26;100.00
8941;BME280;4505;43.406;23.226;2023-11-22T02:06:26;99274.19;;;9.26;100.00
8941;BME280;4505;43.406;23.226;2023-11-22T02:08:52;99272.03;;;9.12;100.00
8941;BME280;4505;43.406;23.226;2023-11-22T02:11:20;99262.56;;;9.16;100.00
8941;BME280;4505;43.406;23.226;2023-11-22T02:13:47;99264.81;;;9.07;100.00
8941;BME280;4505;43.406;23.226;2023-11-22T02:16:14;99258.59;;;9.02;100.00
8941;BME280;4505;43.406;23.226;2023-11-22T02:18:42;99261.47;;;9.00;100.00
8941;BME280;4505;43.406;23.226;2023-11-22T02:21:11;99274.56;;;9.07;100.00
8941;BME280;4505;43.406;23.226;2023-11-22T02:23:38;99268.63;;;9.39;100.00
8941;BME280;4505;43.406;23.226;2023-11-22T02:26:05;99261.84;;;9.60;100.00
8941;BME280;4505;43.406;23.226;2023-11-22T02:28:32;99265.66;;;9.52;100.00
8941;BME280;4505;43.406;23.226;2023-11-22T02:30:58;99272.75;;;9.47;100.00
8941;BME280;4505;43.406;23.226;2023-11-22T02:33:25;99278.31;;;9.34;100.00
8941;BME280;4505;43.406;23.226;2023-11-22T02:35:52;99282.63;;;9.12;100.00
8941;BME280;4505;43.406;23.226;2023-11-22T02:38:20;99276.41;;;9.18;100.00
8941;BME280;4505;43.406;23.226;2023-11-22T02:40:47;99259.34;;;9.14;100.00
8941;BME280;4505;43.406;23.226;2023-11-22T02:43:15;99263.63;;;9.15;100.00
8941;BME280;4505;43.406;23.226;2023-11-22T02:45:41;99266.88;;;9.05;100.00
8941;BME280;4505;43.406;23.226;2023-11-22T02:48:08;99270.03;;;9.19;100.00
8941;BME280;4505;43.406;23.226;2023-11-22T02:50:35;99265.31;;;9.21;100.00
8941;BME280;4505;43.406;23.226;2023-11-22T02:53:02;99271.34;;;9.16;100.00
8941;BME280;4505;43.406;23.226;2023-11-22T02:55:29;99278.81;;;9.19;100.00
8941;BME280;4505;43.406;23.226;2023-11-22T02:57:57;99286.78;;;8.96;100.00
8941;BME280;4505;43.406;23.226;2023-11-22T03:00:23;99295.88;;;9.00;100.00
8941;BME280;4505;43.406;23.226;2023-11-22T03:02:50;99290.34;;;9.02;100.00
8941;BME280;4505;43.406;23.226;2023-11-22T03:05:19;99289.66;;;8.95;100.00
8941;BME280;4505;43.406;23.226;2023-11-22T03:07:45;99289.41;;;9.08;100.00
8941;BME280;4505;43.406;23.226;2023-11-22T03:10:12;99283.34;;;9.47;100.00
8941;BME280;4505;43.406;23.226;2023-11-22T03:12:38;99286.56;;;9.49;100.00
8941;BME280;4505;43.406;23.226;2023-11-22T03:15:07;99294.56;;;9.26;100.00
8941;BME280;4505;43.406;23.226;2023-11-22T03:17:34;99294.13;;;9.17;100.00
8941;BME280;4505;43.406;23.226;2023-11-22T03:20:01;99296.22;;;9.15;100.00
8941;BME280;4505;43.406;23.226;2023-11-22T03:22:27;99291.72;;;9.04;100.00
8941;BME280;4505;43.406;23.226;2023-11-22T03:24:55;99284.94;;;9.08;100.00
8941;BME280;4505;43.406;23.226;2023-11-22T03:27:21;99293.59;;;9.04;100.00
8941;BME280;4505;43.406;23.226;2023-11-22T03:29:48;99302.69;;;8.96;100.00
8941;BME280;4505;43.406;23.226;2023-11-22T03:32:16;99303.94;;;9.05;100.00
8941;BME280;4505;43.406;23.226;2023-11-22T03:34:43;99306.22;;;9.13;100.00
8941;BME280;4505;43.406;23.226;2023-11-22T03:37:10;99314.41;;;9.12;100.00
8941;BME280;4505;43.406;23.226;2023-11-22T03:39:37;99311.28;;;9.15;100.00
8941;BME280;4505;43.406;23.226;2023-11-22T03:42:04;99310.03;;;9.06;100.00
8941;BME280;4505;43.406;23.226;2023-11-22T03:44:30;99305.44;;;9.01;100.00
8941;BME280;4505;43.406;23.226;2023-11-22T03:46:57;99299.22;;;9.07;100.00
8941;BME280;4505;43.406;23.226;2023-11-22T03:49:25;99315.66;;;9.09;100.00
8941;BME280;4505;43.406;23.226;2023-11-22T03:51:52;99315.91;;;9.08;100.00
8941;BME280;4505;43.406;23.226;2023-11-22T03:54:19;99323.81;;;9.31;100.00
8941;BME280;4505;43.406;23.226;2023-11-22T03:56:45;99322.13;;;9.13;100.00
8941;BME280;4505;43.406;23.226;2023-11-22T03:59:12;99323.47;;;9.27;100.00
8941;BME280;4505;43.406;23.226;2023-11-22T04:01:38;99314.19;;;9.13;100.00
8941;BME280;4505;43.406;23.226;2023-11-22T04:04:05;99313.50;;;9.06;100.00
8941;BME280;4505;43.406;23.226;2023-11-22T04:06:34;99311.78;;;9.00;100.00
8941;BME280;4505;43.406;23.226;2023-11-22T04:09:01;99300.47;;;9.05;100.00
8941;BME280;4505;43.406;23.226;2023-11-22T04:11:28;99310.03;;;9.06;100.00
8941;BME280;4505;43.406;23.226;2023-11-22T04:13:56;99326.06;;;8.99;100.00
8941;BME280;4505;43.406;23.226;2023-11-22T04:16:22;99346.22;;;9.00;100.00
8941;BME280;4505;43.406;23.226;2023-11-22T04:18:49;99347.34;;;9.04;100.00
8941;BME280;4505;43.406;23.226;2023-11-22T04:21:16;99341.50;;;9.02;100.00
8941;BME280;4505;43.406;23.226;2023-11-22T04:23:44;99342.16;;;8.98;100.00
8941;BME280;4505;43.406;23.226;2023-11-22T04:26:10;99339.88;;;9.01;100.00
8941;BME280;4505;43.406;23.226;2023-11-22T04:28:37;99338.38;;;8.94;100.00
8941;BME280;4505;43.406;23.226;2023-11-22T04:31:04;99346.31;;;8.94;100.00
8941;BME280;4505;43.406;23.226;2023-11-22T04:33:30;99342.50;;;9.13;100.00
8941;BME280;4505;43.406;23.226;2023-11-22T04:35:57;99347.78;;;9.24;100.00
8941;BME280;4505;43.406;23.226;2023-11-22T04:38:24;99352.28;;;9.24;100.00
8941;BME280;4505;43.406;23.226;2023-11-22T04:40:53;99360.09;;;9.42;100.00
8941;BME280;4505;43.406;23.226;2023-11-22T04:43:19;99367.56;;;9.33;100.00
8941;BME280;4505;43.406;23.226;2023-11-22T04:45:47;99380.28;;;9.08;100.00
8941;BME280;4505;43.406;23.226;2023-11-22T04:48:13;99387.88;;;9.05;100.00
8941;BME280;4505;43.406;23.226;2023-11-22T04:50:40;99383.28;;;9.00;100.00
8941;BME280;4505;43.406;23.226;2023-11-22T04:53:07;99383.88;;;9.02;100.00
8941;BME280;4505;43.406;23.226;2023-11-22T04:55:34;99393.16;;;8.93;100.00
8941;BME280;4505;43.406;23.226;2023-11-22T04:58:02;99390.97;;;8.90;100.00
8941;BME280;4505;43.406;23.226;2023-11-22T05:00:29;99394.47;;;9.02;100.00
8941;BME280;4505;43.406;23.226;2023-11-22T05:02:55;99400.66;;;8.96;100.00
8941;BME280;4505;43.406;23.226;2023-11-22T05:05:22;99403.28;;;8.96;100.00
8941;BME280;4505;43.406;23.226;2023-11-22T05:07:49;99405.72;;;8.98;100.00
8941;BME280;4505;43.406;23.226;2023-11-22T05:10:15;99410.91;;;8.93;100.00
8941;BME280;4505;43.406;23.226;2023-11-22T05:12:42;99404.94;;;8.97;100.00
8941;BME280;4505;43.406;23.226;2023-11-22T05:15:11;99412.19;;;9.25;100.00
8941;BME280;4505;43.406;23.226;2023-11-22T05:17:39;99426.09;;;9.32;100.00
8941;BME280;4505;43.406;23.226;2023-11-22T05:20:06;99433.69;;;9.28;100.00
8941;BME280;4505;43.406;23.226;2023-11-22T05:22:34;99437.50;;;9.32;100.00
8941;BME280;4505;43.406;23.226;2023-11-22T05:25:03;99443.28;;;9.18;100.00
8941;BME280;4505;43.406;23.226;2023-11-22T05:27:31;99443.25;;;8.95;100.00
8941;BME280;4505;43.406;23.226;2023-11-22T05:29:59;99447.53;;;8.96;100.00
8941;BME280;4505;43.406;23.226;2023-11-22T05:32:27;99453.59;;;8.96;100.00
8941;BME280;4505;43.406;23.226;2023-11-22T05:34:54;99447.41;;;9.02;100.00
8941;BME280;4505;43.406;23.226;2023-11-22T05:37:20;99455.13;;;8.92;100.00
8941;BME280;4505;43.406;23.226;2023-11-22T05:39:47;99454.66;;;8.95;100.00
8941;BME280;4505;43.406;23.226;2023-11-22T05:42:13;99451.88;;;8.90;100.00
8941;BME280;4505;43.406;23.226;2023-11-22T05:44:40;99453.59;;;8.96;100.00
8941;BME280;4505;43.406;23.226;2023-11-22T05:47:07;99449.13;;;8.97;100.00
8941;BME280;4505;43.406;23.226;2023-11-22T05:49:35;99455.59;;;9.01;100.00
8941;BME280;4505;43.406;23.226;2023-11-22T05:52:02;99464.09;;;9.03;100.00
8941;BME280;4505;43.406;23.226;2023-11-22T05:54:29;99461.91;;;9.00;100.00
8941;BME280;4505;43.406;23.226;2023-11-22T05:56:58;99462.72;;;9.00;100.00
8941;BME280;4505;43.406;23.226;2023-11-22T05:59:25;99467.34;;;9.16;100.00
8941;BME280;4505;43.406;23.226;2023-11-22T06:01:52;99467.22;;;9.23;100.00
8941;BME280;4505;43.406;23.226;2023-11-22T06:04:18;99476.09;;;9.28;100.00
8941;BME280;4505;43.406;23.226;2023-11-22T06:06:46;99480.59;;;9.28;100.00
8941;BME280;4505;43.406;23.226;2023-11-22T06:09:13;99474.59;;;9.09;100.00
8941;BME280;4505;43.406;23.226;2023-11-22T06:11:43;99474.94;;;9.13;100.00
8941;BME280;4505;43.406;23.226;2023-11-22T06:14:12;99473.88;;;9.14;100.00
8941;BME280;4505;43.406;23.226;2023-11-22T06:16:38;99471.03;;;9.15;100.00
8941;BME280;4505;43.406;23.226;2023-11-22T06:19:05;99477.59;;;9.13;100.00
8941;BME280;4505;43.406;23.226;2023-11-22T06:21:32;99488.78;;;9.15;100.00
8941;BME280;4505;43.406;23.226;2023-11-22T06:24:00;99491.66;;;9.13;100.00
8941;BME280;4505;43.406;23.226;2023-11-22T06:26:29;99499.69;;;9.07;100.00
8941;BME280;4505;43.406;23.226;2023-11-22T06:28:55;99500.50;;;9.19;100.00
8941;BME280;4505;43.406;23.226;2023-11-22T06:31:22;99515.84;;;9.17;100.00
8941;BME280;4505;43.406;23.226;2023-11-22T06:33:48;99524.00;;;9.27;100.00
8941;BME280;4505;43.406;23.226;2023-11-22T06:36:15;99531.41;;;9.36;100.00
8941;BME280;4505;43.406;23.226;2023-11-22T06:38:43;99536.34;;;9.21;100.00
8941;BME280;4505;43.406;23.226;2023-11-22T06:41:12;99521.56;;;9.14;100.00
8941;BME280;4505;43.406;23.226;2023-11-22T06:43:39;99530.56;;;9.13;100.00
8941;BME280;4505;43.406;23.226;2023-11-22T06:46:05;99540.25;;;9.19;100.00
8941;BME280;4505;43.406;23.226;2023-11-22T06:48:32;99545.78;;;9.17;100.00
8941;BME280;4505;43.406;23.226;2023-11-22T06:50:59;99552.84;;;9.23;100.00
8941;BME280;4505;43.406;23.226;2023-11-22T06:53:26;99547.88;;;9.15;100.00
8941;BME280;4505;43.406;23.226;2023-11-22T06:55:52;99559.13;;;9.11;100.00
8941;BME280;4505;43.406;23.226;2023-11-22T06:58:23;99559.72;;;9.24;100.00
8941;BME280;4505;43.406;23.226;2023-11-22T07:00:50;99559.38;;;9.21;100.00
8941;BME280;4505;43.406;23.226;2023-11-22T07:03:17;99563.84;;;9.20;100.00
8941;BME280;4505;43.406;23.226;2023-11-22T07:05:45;99559.00;;;9.17;100.00
8941;BME280;4505;43.406;23.226;2023-11-22T07:08:12;99564.09;;;9.19;100.00
8941;BME280;4505;43.406;23.226;2023-11-22T07:10:41;99568.94;;;9.22;100.00
8941;BME280;4505;43.406;23.226;2023-11-22T07:13:10;99575.53;;;9.31;100.00
8941;BME280;4505;43.406;23.226;2023-11-22T07:15:38;99577.72;;;9.34;100.00
8941;BME280;4505;43.406;23.226;2023-11-22T07:18:04;99573.56;;;9.38;100.00
8941;BME280;4505;43.406;23.226;2023-11-22T07:20:33;99580.72;;;9.60;100.00
8941;BME280;4505;43.406;23.226;2023-11-22T07:22:59;99575.56;;;9.42;100.00
8941;BME280;4505;43.406;23.226;2023-11-22T07:25:27;99577.72;;;9.34;100.00
8941;BME280;4505;43.406;23.226;2023-11-22T07:27:54;99587.81;;;9.25;100.00
8941;BME280;4505;43.406;23.226;2023-11-22T07:30:21;99589.34;;;9.33;100.00
8941;BME280;4505;43.406;23.226;2023-11-22T07:32:50;99595.44;;;9.33;100.00
8941;BME280;4505;43.406;23.226;2023-11-22T07:35:18;99588.53;;;9.32;100.00
8941;BME280;4505;43.406;23.226;2023-11-22T07:37:46;99597.88;;;9.35;100.00
8941;BME280;4505;43.406;23.226;2023-11-22T07:40:13;99596.94;;;9.29;100.00
8941;BME280;4505;43.406;23.226;2023-11-22T07:42:39;99604.63;;;9.19;100.00
8941;BME280;4505;43.406;23.226;2023-11-22T07:45:07;99604.91;;;9.29;100.00
8941;BME280;4505;43.406;23.226;2023-11-22T07:47:36;99606.03;;;9.33;100.00
8941;BME280;4505;43.406;23.226;2023-11-22T07:50:07;99598.09;;;9.33;100.00
8941;BME280;4505;43.406;23.226;2023-11-22T07:52:34;99601.69;;;9.39;100.00
8941;BME280;4505;43.406;23.226;2023-11-22T07:55:01;99607.81;;;9.39;100.00
8941;BME280;4505;43.406;23.226;2023-11-22T07:57:28;99603.91;;;9.88;100.00
8941;BME280;4505;43.406;23.226;2023-11-22T07:59:57;99604.50;;;9.90;100.00
8941;BME280;4505;43.406;23.226;2023-11-22T08:02:26;99604.50;;;9.90;100.00
8941;BME280;4505;43.406;23.226;2023-11-22T08:04:53;99606.25;;;10.07;100.00
8941;BME280;4505;43.406;23.226;2023-11-22T08:07:24;99601.84;;;10.25;100.00
8941;BME280;4505;43.406;23.226;2023-11-22T08:16:21;99622.22;;;9.55;100.00
8941;BME280;4505;43.406;23.226;2023-11-22T08:18:48;99620.28;;;9.50;100.00
8941;BME280;4505;43.406;23.226;2023-11-22T08:21:16;99623.47;;;9.41;100.00
8941;BME280;4505;43.406;23.226;2023-11-22T08:23:49;99618.75;;;9.54;100.00
8941;BME280;4505;43.406;23.226;2023-11-22T08:26:19;99615.41;;;9.36;100.00
8941;BME280;4505;43.406;23.226;2023-11-22T08:28:49;99625.44;;;9.45;100.00
8941;BME280;4505;43.406;23.226;2023-11-22T08:31:16;99621.16;;;9.44;100.00
8941;BME280;4505;43.406;23.226;2023-11-22T08:33:43;99628.78;;;9.41;100.00
8941;BME280;4505;43.406;23.226;2023-11-22T08:36:41;99629.34;;;9.43;100.00
8941;BME280;4505;43.406;23.226;2023-11-22T08:39:03;99631.50;;;10.22;100.00
8941;BME280;4505;43.406;23.226;2023-11-22T08:41:30;99627.81;;;10.23;100.00
8941;BME280;4505;43.406;23.226;2023-11-22T08:44:00;99637.03;;;10.08;100.00
8941;BME280;4505;43.406;23.226;2023-11-22T08:46:27;99638.28;;;9.94;100.00
8941;BME280;4505;43.406;23.226;2023-11-22T08:48:56;99637.56;;;9.64;100.00
8941;BME280;4505;43.406;23.226;2023-11-22T08:51:23;99648.19;;;9.76;100.00
8941;BME280;4505;43.406;23.226;2023-11-22T08:53:56;99651.06;;;9.86;100.00
8941;BME280;4505;43.406;23.226;2023-11-22T08:56:44;99658.28;;;9.56;100.00
8941;BME280;4505;43.406;23.226;2023-11-22T08:59:42;99650.91;;;9.46;100.00
8941;BME280;4505;43.406;23.226;2023-11-22T09:02:27;99651.50;;;9.48;100.00
8941;BME280;4505;43.406;23.226;2023-11-22T09:05:16;99658.25;;;9.44;100.00
8941;BME280;4505;43.406;23.226;2023-11-22T09:07:47;99652.50;;;9.36;100.00
8941;BME280;4505;43.406;23.226;2023-11-22T09:10:14;99656.84;;;9.83;100.00
8941;BME280;4505;43.406;23.226;2023-11-22T09:12:45;99657.81;;;10.12;100.00
8941;BME280;4505;43.406;23.226;2023-11-22T09:15:13;99648.09;;;10.05;100.00
8941;BME280;4505;43.406;23.226;2023-11-22T09:17:44;99647.88;;;10.30;100.00
8941;BME280;4505;43.406;23.226;2023-11-22T09:20:12;99653.59;;;9.69;100.00
8941;BME280;4505;43.406;23.226;2023-11-22T09:22:42;99647.34;;;9.52;100.00
8941;BME280;4505;43.406;23.226;2023-11-22T09:25:13;99650.00;;;9.52;100.00
8941;BME280;4505;43.406;23.226;2023-11-22T09:27:41;99655.19;;;9.59;100.00
8941;BME280;4505;43.406;23.226;2023-11-22T09:30:13;99661.44;;;9.64;100.00
8941;BME280;4505;43.406;23.226;2023-11-22T09:32:45;99662.81;;;9.67;100.00
8941;BME280;4505;43.406;23.226;2023-11-22T09:35:12;99649.44;;;9.50;100.00
8941;BME280;4505;43.406;23.226;2023-11-22T09:37:40;99659.13;;;9.56;100.00
8941;BME280;4505;43.406;23.226;2023-11-22T09:40:08;99654.13;;;9.48;100.00
8941;BME280;4505;43.406;23.226;2023-11-22T09:42:35;99656.50;;;10.02;100.00
8941;BME280;4505;43.406;23.226;2023-11-22T09:45:04;99652.94;;;10.32;100.00
8941;BME280;4505;43.406;23.226;2023-11-22T09:47:33;99663.00;;;10.30;100.00
8941;BME280;4505;43.406;23.226;2023-11-22T09:50:01;99663.56;;;10.55;100.00
8941;BME280;4505;43.406;23.226;2023-11-22T09:52:33;99658.25;;;10.20;100.00
8941;BME280;4505;43.406;23.226;2023-11-22T09:55:04;99664.34;;;9.74;100.00
8941;BME280;4505;43.406;23.226;2023-11-22T09:57:31;99665.38;;;9.85;100.00
8941;BME280;4505;43.406;23.226;2023-11-22T09:59:59;99669.06;;;9.72;100.00
8941;BME280;4505;43.406;23.226;2023-11-22T10:02:27;99669.16;;;9.66;100.00
8941;BME280;4505;43.406;23.226;2023-11-22T10:04:55;99674.69;;;9.64;100.00
8941;BME280;4505;43.406;23.226;2023-11-22T10:07:22;99667.19;;;9.61;100.00
8941;BME280;4505;43.406;23.226;2023-11-22T10:09:48;99671.47;;;9.74;100.00
8941;BME280;4505;43.406;23.226;2023-11-22T10:12:18;99669.06;;;9.72;100.00
8941;BME280;4505;43.406;23.226;2023-11-22T10:14:46;99668.59;;;9.75;100.00
8941;BME280;4505;43.406;23.226;2023-11-22T10:17:13;99669.84;;;9.61;100.00
8941;BME280;4505;43.406;23.226;2023-11-22T10:19:40;99676.19;;;9.72;100.00
8941;BME280;4505;43.406;23.226;2023-11-22T10:22:09;99672.00;;;10.17;100.00
8941;BME280;4505;43.406;23.226;2023-11-22T10:24:35;99678.09;;;10.41;100.00
8941;BME280;4505;43.406;23.226;2023-11-22T10:27:02;99677.28;;;10.52;100.00
8941;BME280;4505;43.406;23.226;2023-11-22T10:29:29;99673.13;;;10.33;100.00
8941;BME280;4505;43.406;23.226;2023-11-22T10:31:56;99676.22;;;9.95;100.00
8941;BME280;4505;43.406;23.226;2023-11-22T10:34:23;99678.06;;;9.94;100.00
8941;BME280;4505;43.406;23.226;2023-11-22T10:36:50;99674.03;;;9.80;100.00
8941;BME280;4505;43.406;23.226;2023-11-22T10:39:22;99679.19;;;9.75;100.00
8941;BME280;4505;43.406;23.226;2023-11-22T10:41:51;99681.13;;;9.68;100.00
8941;BME280;4505;43.406;23.226;2023-11-22T10:44:18;99682.56;;;9.82;100.00
8941;BME280;4505;43.406;23.226;2023-11-22T10:46:45;99689.09;;;9.68;100.00
8941;BME280;4505;43.406;23.226;2023-11-22T10:49:13;99696.50;;;9.66;100.00
8941;BME280;4505;43.406;23.226;2023-11-22T10:51:40;99690.69;;;9.58;100.00
8941;BME280;4505;43.406;23.226;2023-11-22T10:54:07;99691.47;;;9.47;100.00
8941;BME280;4505;43.406;23.226;2023-11-22T10:56:38;99700.63;;;9.62;100.00
8941;BME280;4505;43.406;23.226;2023-11-22T10:59:09;99702.44;;;10.26;100.00
8941;BME280;4505;43.406;23.226;2023-11-22T11:01:36;99701.19;;;10.40;100.00
8941;BME280;4505;43.406;23.226;2023-11-22T11:04:06;99705.78;;;10.68;100.00
8941;BME280;4505;43.406;23.226;2023-11-22T11:06:36;99711.34;;;10.55;100.00
8941;BME280;4505;43.406;23.226;2023-11-22T11:09:04;99706.66;;;9.92;100.00
8941;BME280;4505;43.406;23.226;2023-11-22T11:11:32;99713.09;;;9.73;100.00
8941;BME280;4505;43.406;23.226;2023-11-22T11:14:00;99729.31;;;9.65;100.00
8941;BME280;4505;43.406;23.226;2023-11-22T11:16:27;99724.78;;;9.54;100.00
8941;BME280;4505;43.406;23.226;2023-11-22T11:18:56;99722.72;;;9.56;100.00
8941;BME280;4505;43.406;23.226;2023-11-22T11:21:24;99717.56;;;9.61;100.00
8941;BME280;4505;43.406;23.226;2023-11-22T11:23:51;99721.97;;;9.67;100.00
8941;BME280;4505;43.406;23.226;2023-11-22T11:26:20;99719.03;;;9.57;100.00
8941;BME280;4505;43.406;23.226;2023-11-22T11:28:51;99707.28;;;9.53;100.00
8941;BME280;4505;43.406;23.226;2023-11-22T11:31:22;99713.91;;;9.44;100.00
8941;BME280;4505;43.406;23.226;2023-11-22T11:33:54;99716.03;;;9.54;100.00
8941;BME280;4505;43.406;23.226;2023-11-22T11:36:22;99717.59;;;10.26;100.00
8941;BME280;4505;43.406;23.226;2023-11-22T11:38:50;99726.00;;;10.46;100.00
8941;BME280;4505;43.406;23.226;2023-11-22T11:41:17;99734.19;;;10.44;100.00
8941;BME280;4505;43.406;23.226;2023-11-22T11:43:44;99734.66;;;10.30;100.00
8941;BME280;4505;43.406;23.226;2023-11-22T11:46:11;99732.41;;;9.92;100.00
8941;BME280;4505;43.406;23.226;2023-11-22T11:48:43;99737.63;;;9.69;100.00
8941;BME280;4505;43.406;23.226;2023-11-22T11:51:10;99732.28;;;9.57;100.00
8941;BME280;4505;43.406;23.226;2023-11-22T11:53:39;99742.03;;;9.75;100.00
8941;BME280;4505;43.406;23.226;2023-11-22T11:56:06;99740.59;;;9.61;100.00
8941;BME280;4505;43.406;23.226;2023-11-22T11:58:33;99743.38;;;9.66;100.00
8941;BME280;4505;43.406;23.226;2023-11-22T12:01:00;99737.53;;;9.75;100.00
8941;BME280;4505;43.406;23.226;2023-11-22T12:03:27;99750.78;;;9.75;100.00
8941;BME280;4505;43.406;23.226;2023-11-22T12:05:55;99747.75;;;9.60;100.00
8941;BME280;4505;43.406;23.226;2023-11-22T12:08:22;99743.97;;;9.68;100.00
8941;BME280;4505;43.406;23.226;2023-11-22T12:10:49;99753.78;;;9.67;100.00
8941;BME280;4505;43.406;23.226;2023-11-22T12:13:16;99749.56;;;10.31;100.00
8941;BME280;4505;43.406;23.226;2023-11-22T12:15:43;99756.72;;;10.53;100.00
8941;BME280;4505;43.406;23.226;2023-11-22T12:18:10;99754.38;;;10.22;100.00
8941;BME280;4505;43.406;23.226;2023-11-22T12:20:39;99754.84;;;10.31;100.00
8941;BME280;4505;43.406;23.226;2023-11-22T12:23:07;99767.84;;;10.09;100.00
8941;BME280;4505;43.406;23.226;2023-11-22T12:25:37;99774.47;;;9.88;100.00
8941;BME280;4505;43.406;23.226;2023-11-22T12:28:09;99767.25;;;9.66;100.00
8941;BME280;4505;43.406;23.226;2023-11-22T12:30:36;99769.25;;;9.52;100.00
8941;BME280;4505;43.406;23.226;2023-11-22T12:33:10;99769.16;;;9.47;100.00
8941;BME280;4505;43.406;23.226;2023-11-22T12:35:38;99771.91;;;9.52;100.00
8941;BME280;4505;43.406;23.226;2023-11-22T12:38:07;99770.91;;;9.53;100.00
8941;BME280;4505;43.406;23.226;2023-11-22T12:40:34;99777.09;;;9.47;100.00
8941;BME280;4505;43.406;23.226;2023-11-22T12:43:01;99777.44;;;9.51;100.00
8941;BME280;4505;43.406;23.226;2023-11-22T12:45:29;99778.03;;;9.53;100.00
8941;BME280;4505;43.406;23.226;2023-11-22T12:47:59;99775.47;;;9.46;100.00
8941;BME280;4505;43.406;23.226;2023-11-22T12:50:35;99790.00;;;9.44;100.00
8941;BME280;4505;43.406;23.226;2023-11-22T12:53:09;99778.75;;;9.60;100.00
8941;BME280;4505;43.406;23.226;2023-11-22T12:55:37;99781.78;;;10.04;100.00
8941;BME280;4505;43.406;23.226;2023-11-22T12:58:05;99792.13;;;10.24;100.00
8941;BME280;4505;43.406;23.226;2023-11-22T13:00:32;99792.94;;;10.36;100.00
8941;BME280;4505;43.406;23.226;2023-11-22T13:02:59;99787.03;;;10.23;100.00
8941;BME280;4505;43.406;23.226;2023-11-22T13:05:26;99795.16;;;9.68;100.00
8941;BME280;4505;43.406;23.226;2023-11-22T13:07:52;99802.94;;;9.52;100.00
8941;BME280;4505;43.406;23.226;2023-11-22T13:10:20;99801.31;;;9.51;100.00
8941;BME280;4505;43.406;23.226;2023-11-22T13:12:54;99800.28;;;9.52;100.00
8941;BME280;4505;43.406;23.226;2023-11-22T13:15:20;99800.72;;;9.49;100.00
8941;BME280;4505;43.406;23.226;2023-11-22T13:17:49;99809.88;;;9.35;100.00
8941;BME280;4505;43.406;23.226;2023-11-22T13:20:15;99811.41;;;9.42;100.00